createdAt,value
2022-08-19T00:00:08.767Z,24.46
2022-08-19T00:01:07.886Z,24.44
2022-08-19T00:02:07.269Z,24.44
2022-08-19T00:03:07.175Z,24.38
2022-08-19T00:04:07.330Z,24.39
2022-08-19T00:05:07.377Z,24.38
2022-08-19T00:06:07.494Z,24.35
2022-08-19T00:07:07.887Z,24.32
2022-08-19T00:08:07.159Z,24.30
2022-08-19T00:09:07.574Z,24.30
2022-08-19T00:10:07.888Z,24.30
2022-08-19T00:11:07.201Z,24.29
2022-08-19T00:12:07.871Z,24.28
2022-08-19T00:13:07.256Z,24.27
2022-08-19T00:14:07.237Z,24.27
2022-08-19T00:15:07.568Z,24.25
2022-08-19T00:16:07.554Z,24.22
2022-08-19T00:17:07.690Z,24.20
2022-08-19T00:18:07.733Z,24.20
2022-08-19T00:19:07.428Z,24.18
2022-08-19T00:20:07.586Z,24.16
2022-08-19T00:21:07.739Z,24.15
2022-08-19T00:22:07.695Z,24.15
2022-08-19T00:23:07.613Z,24.12
2022-08-19T00:24:07.694Z,24.12
2022-08-19T00:25:08.009Z,24.12
2022-08-19T00:26:07.465Z,24.15
2022-08-19T00:27:26.221Z,24.15
2022-08-19T00:28:07.048Z,24.15
2022-08-19T00:29:07.057Z,24.15
2022-08-19T00:30:07.212Z,24.17
2022-08-19T00:31:07.434Z,24.17
2022-08-19T00:32:07.640Z,24.16
2022-08-19T00:33:07.311Z,24.18
2022-08-19T00:34:07.277Z,24.19
2022-08-19T00:35:07.418Z,24.15
2022-08-19T00:36:07.242Z,24.17
2022-08-19T00:37:07.312Z,24.15
2022-08-19T00:38:07.447Z,24.17
2022-08-19T00:39:07.553Z,24.16
2022-08-19T00:40:07.491Z,24.16
2022-08-19T00:41:07.379Z,24.17
2022-08-19T00:42:07.273Z,24.19
2022-08-19T00:43:07.323Z,24.20
2022-08-19T00:44:07.555Z,24.19
2022-08-19T00:45:07.805Z,24.20
2022-08-19T00:46:07.789Z,24.20
2022-08-19T00:47:07.900Z,24.23
2022-08-19T00:48:14.748Z,24.22
2022-08-19T00:49:07.335Z,24.22
2022-08-19T00:50:07.245Z,24.20
2022-08-19T00:51:07.342Z,24.19
2022-08-19T00:52:07.424Z,24.18
2022-08-19T00:53:07.375Z,24.17
2022-08-19T00:54:07.598Z,24.17
2022-08-19T00:55:07.733Z,24.12
2022-08-19T00:56:07.428Z,24.08
2022-08-19T00:57:07.429Z,24.04
2022-08-19T00:58:07.418Z,23.98
2022-08-19T00:59:07.464Z,23.94
2022-08-19T01:00:08.429Z,23.92
2022-08-19T01:01:07.296Z,23.89
2022-08-19T01:02:07.208Z,23.86
2022-08-19T01:03:07.383Z,23.82
2022-08-19T01:04:07.406Z,23.79
2022-08-19T01:05:07.255Z,23.78
2022-08-19T01:06:07.282Z,23.78
2022-08-19T01:07:07.211Z,23.75
2022-08-19T01:08:07.357Z,23.75
2022-08-19T01:09:07.521Z,23.77
2022-08-19T01:10:07.482Z,23.79
2022-08-19T01:11:07.499Z,23.82
2022-08-19T01:12:07.501Z,23.83
2022-08-19T01:13:07.675Z,23.86
2022-08-19T01:14:07.704Z,23.87
2022-08-19T01:15:08.014Z,23.87
2022-08-19T01:16:07.282Z,23.87
2022-08-19T01:17:07.202Z,23.87
2022-08-19T01:18:07.381Z,23.87
2022-08-19T01:19:07.565Z,23.86
2022-08-19T01:20:07.950Z,23.89
2022-08-19T01:21:07.191Z,23.86
2022-08-19T01:22:14.263Z,23.86
2022-08-19T01:23:07.587Z,23.85
2022-08-19T01:24:07.839Z,23.85
2022-08-19T01:25:13.546Z,23.84
2022-08-19T01:26:07.482Z,23.86
2022-08-19T01:27:07.535Z,23.87
2022-08-19T01:28:11.093Z,23.88
2022-08-19T01:29:07.396Z,23.88
2022-08-19T01:30:07.976Z,23.87
2022-08-19T01:31:08.167Z,23.84
2022-08-19T01:32:07.394Z,23.81
2022-08-19T01:33:07.202Z,23.75
2022-08-19T01:34:07.150Z,23.68
2022-08-19T01:35:07.129Z,23.63
2022-08-19T01:36:07.366Z,23.61
2022-08-19T01:37:07.393Z,23.56
2022-08-19T01:38:07.528Z,23.55
2022-08-19T01:39:07.379Z,23.54
2022-08-19T01:40:09.404Z,23.53
2022-08-19T01:41:09.753Z,23.48
2022-08-19T01:42:07.352Z,23.49
2022-08-19T01:43:07.414Z,23.49
2022-08-19T01:44:18.025Z,23.48
2022-08-19T01:45:07.545Z,23.48
2022-08-19T01:46:07.606Z,23.45
2022-08-19T01:47:07.673Z,23.47
2022-08-19T01:48:07.805Z,23.43
2022-08-19T01:49:07.847Z,23.40
2022-08-19T01:50:07.946Z,23.40
2022-08-19T01:51:07.210Z,23.40
2022-08-19T01:52:07.254Z,23.40
2022-08-19T01:53:07.844Z,23.41
2022-08-19T01:54:07.610Z,23.41
2022-08-19T01:55:07.845Z,23.46
2022-08-19T01:56:07.042Z,23.46
2022-08-19T01:57:07.103Z,23.47
2022-08-19T01:58:07.183Z,23.47
2022-08-19T01:59:07.180Z,23.48
2022-08-19T02:00:08.065Z,23.5
2022-08-19T02:01:07.840Z,23.49
2022-08-19T02:02:07.302Z,23.50
2022-08-19T02:03:07.331Z,23.49
2022-08-19T02:04:07.303Z,23.51
2022-08-19T02:05:07.637Z,23.51
2022-08-19T02:06:07.045Z,23.54
2022-08-19T02:07:07.166Z,23.53
2022-08-19T02:08:07.173Z,23.54
2022-08-19T02:09:07.349Z,23.56
2022-08-19T02:10:09.409Z,23.57
2022-08-19T02:11:07.706Z,23.56
2022-08-19T02:12:07.041Z,23.59
2022-08-19T02:13:07.088Z,23.60
2022-08-19T02:14:07.704Z,23.59
2022-08-19T02:15:07.913Z,23.61
2022-08-19T02:16:07.028Z,23.60
2022-08-19T02:17:07.231Z,23.62
2022-08-19T02:18:07.329Z,23.63
2022-08-19T02:19:07.622Z,23.63
2022-08-19T02:20:07.616Z,23.63
2022-08-19T02:21:07.667Z,23.63
2022-08-19T02:22:07.605Z,23.65
2022-08-19T02:23:13.912Z,23.63
2022-08-19T02:24:07.247Z,23.65
2022-08-19T02:25:07.495Z,23.66
2022-08-19T02:26:07.545Z,23.67
2022-08-19T02:27:07.622Z,23.70
2022-08-19T02:28:07.604Z,23.68
2022-08-19T02:29:07.752Z,23.66
2022-08-19T02:30:08.245Z,23.63
2022-08-19T02:31:07.684Z,23.57
2022-08-19T02:32:07.723Z,23.52
2022-08-19T02:33:07.304Z,23.47
2022-08-19T02:34:07.290Z,23.46
2022-08-19T02:35:12.156Z,23.42
2022-08-19T02:36:07.297Z,23.35
2022-08-19T02:37:07.575Z,23.32
2022-08-19T02:38:07.666Z,23.28
2022-08-19T02:39:07.852Z,23.26
2022-08-19T02:40:12.403Z,23.24
2022-08-19T02:41:07.236Z,23.24
2022-08-19T02:42:07.798Z,23.26
2022-08-19T02:43:07.059Z,23.23
2022-08-19T02:44:30.163Z,23.26
2022-08-19T02:45:08.008Z,23.27
2022-08-19T02:46:07.465Z,23.28
2022-08-19T02:47:07.861Z,23.32
2022-08-19T02:48:12.706Z,23.32
2022-08-19T02:49:07.782Z,23.33
2022-08-19T02:50:07.768Z,23.35
2022-08-19T02:51:06.837Z,23.33
2022-08-19T02:52:07.165Z,23.34
2022-08-19T02:53:07.433Z,23.35
2022-08-19T02:54:07.166Z,23.31
2022-08-19T02:55:07.657Z,23.32
2022-08-19T02:56:07.815Z,23.31
2022-08-19T02:57:07.112Z,23.34
2022-08-19T02:58:07.323Z,23.33
2022-08-19T02:59:07.405Z,23.33
2022-08-19T03:00:08.169Z,23.33
2022-08-19T03:01:08.215Z,23.35
2022-08-19T03:02:07.674Z,23.37
2022-08-19T03:03:07.910Z,23.37
2022-08-19T03:04:07.112Z,23.40
2022-08-19T03:05:07.437Z,23.39
2022-08-19T03:06:07.502Z,23.39
2022-08-19T03:07:11.191Z,23.40
2022-08-19T03:08:07.467Z,23.38
2022-08-19T03:09:07.605Z,23.38
2022-08-19T03:10:07.699Z,23.36
2022-08-19T03:11:07.641Z,23.38
2022-08-19T03:12:07.790Z,23.37
2022-08-19T03:13:07.830Z,23.36
2022-08-19T03:14:07.055Z,23.34
2022-08-19T03:15:07.619Z,23.31
2022-08-19T03:16:07.584Z,23.30
2022-08-19T03:17:07.533Z,23.26
2022-08-19T03:18:07.544Z,23.25
2022-08-19T03:19:06.862Z,23.21
2022-08-19T03:20:07.254Z,23.21
2022-08-19T03:21:07.233Z,23.21
2022-08-19T03:22:06.948Z,23.20
2022-08-19T03:23:07.020Z,23.20
2022-08-19T03:24:07.070Z,23.20
2022-08-19T03:25:07.415Z,23.20
2022-08-19T03:26:15.859Z,23.19
2022-08-19T03:27:07.347Z,23.17
2022-08-19T03:28:07.852Z,23.15
2022-08-19T03:29:07.235Z,23.17
2022-08-19T03:30:07.641Z,23.20
2022-08-19T03:31:42.121Z,23.20
2022-08-19T03:32:08.000Z,23.19
2022-08-19T03:33:07.271Z,23.19
2022-08-19T03:34:08.147Z,23.17
2022-08-19T03:35:07.407Z,23.16
2022-08-19T03:36:07.591Z,23.15
2022-08-19T03:37:07.643Z,23.17
2022-08-19T03:38:07.609Z,23.16
2022-08-19T03:39:07.678Z,23.18
2022-08-19T03:40:07.913Z,23.18
2022-08-19T03:41:07.123Z,23.20
2022-08-19T03:42:38.463Z,23.20
2022-08-19T03:43:08.149Z,23.22
2022-08-19T03:44:07.244Z,23.22
2022-08-19T03:45:07.749Z,23.25
2022-08-19T03:46:07.238Z,23.26
2022-08-19T03:47:07.474Z,23.27
2022-08-19T03:48:08.031Z,23.27
2022-08-19T03:49:07.341Z,23.31
2022-08-19T03:50:07.209Z,23.29
2022-08-19T03:51:07.294Z,23.31
2022-08-19T03:52:07.382Z,23.30
2022-08-19T03:53:07.436Z,23.30
2022-08-19T03:54:07.542Z,23.29
2022-08-19T03:55:07.698Z,23.29
2022-08-19T03:56:07.094Z,23.31
2022-08-19T03:57:07.382Z,23.29
2022-08-19T03:58:07.346Z,23.29
2022-08-19T03:59:07.167Z,23.30
2022-08-19T04:00:13.805Z,23.31
2022-08-19T04:01:07.407Z,23.30
2022-08-19T04:02:07.459Z,23.29
2022-08-19T04:03:07.733Z,23.32
2022-08-19T04:04:07.860Z,23.32
2022-08-19T04:05:08.069Z,23.31
2022-08-19T04:06:07.225Z,23.28
2022-08-19T04:07:07.687Z,23.25
2022-08-19T04:08:10.727Z,23.23
2022-08-19T04:09:07.887Z,23.21
2022-08-19T04:10:07.177Z,23.18
2022-08-19T04:11:07.093Z,23.17
2022-08-19T04:12:07.407Z,23.15
2022-08-19T04:13:07.506Z,23.14
2022-08-19T04:14:07.334Z,23.12
2022-08-19T04:15:07.815Z,23.12
2022-08-19T04:16:07.199Z,23.11
2022-08-19T04:17:07.452Z,23.10
2022-08-19T04:18:06.983Z,23.10
2022-08-19T04:19:07.293Z,23.09
2022-08-19T04:20:07.580Z,23.09
2022-08-19T04:21:07.648Z,23.09
2022-08-19T04:22:07.612Z,23.07
2022-08-19T04:23:07.760Z,23.10
2022-08-19T04:24:08.077Z,23.10
2022-08-19T04:25:07.649Z,23.10
2022-08-19T04:26:07.379Z,23.10
2022-08-19T04:27:07.210Z,23.07
2022-08-19T04:28:07.312Z,23.07
2022-08-19T04:29:11.650Z,23.09
2022-08-19T04:30:08.115Z,23.06
2022-08-19T04:31:07.577Z,23.05
2022-08-19T04:32:08.550Z,23.06
2022-08-19T04:33:12.442Z,23.06
2022-08-19T04:34:07.174Z,23.06
2022-08-19T04:35:18.455Z,23.06
2022-08-19T04:36:07.159Z,23.06
2022-08-19T04:37:07.129Z,23.05
2022-08-19T04:38:07.070Z,23.02
2022-08-19T04:39:07.321Z,23.03
2022-08-19T04:40:07.572Z,23
2022-08-19T04:41:07.103Z,22.98
2022-08-19T04:42:07.208Z,22.96
2022-08-19T04:43:07.394Z,22.95
2022-08-19T04:44:07.484Z,22.93
2022-08-19T04:45:09.323Z,22.89
2022-08-19T04:46:07.681Z,22.87
2022-08-19T04:47:10.974Z,22.85
2022-08-19T04:48:27.206Z,22.81
2022-08-19T04:49:13.053Z,22.77
2022-08-19T04:50:07.962Z,22.76
2022-08-19T04:51:07.784Z,22.75
2022-08-19T04:52:07.015Z,22.73
2022-08-19T04:53:07.217Z,22.75
2022-08-19T04:54:07.229Z,22.73
2022-08-19T04:55:07.625Z,22.71
2022-08-19T04:56:07.719Z,22.71
2022-08-19T04:57:08.221Z,22.69
2022-08-19T04:58:07.403Z,22.67
2022-08-19T04:59:07.638Z,22.68
2022-08-19T05:00:08.460Z,22.68
2022-08-19T05:01:07.218Z,22.68
2022-08-19T05:02:07.675Z,22.67
2022-08-19T05:03:07.928Z,22.65
2022-08-19T05:04:07.220Z,22.65
2022-08-19T05:05:07.352Z,22.64
2022-08-19T05:06:07.482Z,22.62
2022-08-19T05:07:07.529Z,22.62
2022-08-19T05:08:07.760Z,22.63
2022-08-19T05:09:07.216Z,22.65
2022-08-19T05:10:07.501Z,22.66
2022-08-19T05:11:07.621Z,22.65
2022-08-19T05:12:07.106Z,22.67
2022-08-19T05:13:07.289Z,22.67
2022-08-19T05:14:07.265Z,22.67
2022-08-19T05:15:07.455Z,22.65
2022-08-19T05:16:07.051Z,22.67
2022-08-19T05:17:26.537Z,22.70
2022-08-19T05:18:07.661Z,22.69
2022-08-19T05:19:06.982Z,22.70
2022-08-19T05:20:07.304Z,22.75
2022-08-19T05:21:07.269Z,22.77
2022-08-19T05:22:07.373Z,22.79
2022-08-19T05:23:10.815Z,22.83
2022-08-19T05:24:07.070Z,22.86
2022-08-19T05:25:13.059Z,22.89
2022-08-19T05:26:07.558Z,22.91
2022-08-19T05:27:07.300Z,22.95
2022-08-19T05:28:07.450Z,22.96
2022-08-19T05:29:07.633Z,22.99
2022-08-19T05:30:07.619Z,23.01
2022-08-19T05:31:07.117Z,23.04
2022-08-19T05:32:07.507Z,23.05
2022-08-19T05:33:07.905Z,23.07
2022-08-19T05:34:07.264Z,23.09
2022-08-19T05:35:07.424Z,23.10
2022-08-19T05:36:07.953Z,23.11
2022-08-19T05:37:07.470Z,23.11
2022-08-19T05:38:07.967Z,23.09
2022-08-19T05:39:07.473Z,23.09
2022-08-19T05:40:07.573Z,23.06
2022-08-19T05:41:07.973Z,23.06
2022-08-19T05:42:07.363Z,23.05
2022-08-19T05:43:07.640Z,23.04
2022-08-19T05:44:07.890Z,23.05
2022-08-19T05:45:08.965Z,23.05
2022-08-19T05:46:07.506Z,23.04
2022-08-19T05:47:07.907Z,23
2022-08-19T05:48:07.283Z,22.98
2022-08-19T05:49:07.510Z,22.96
2022-08-19T05:50:07.784Z,22.95
2022-08-19T05:51:07.233Z,22.93
2022-08-19T05:52:07.498Z,22.93
2022-08-19T05:53:07.429Z,22.93
2022-08-19T05:54:07.546Z,22.91
2022-08-19T05:55:08.412Z,22.93
2022-08-19T05:56:07.597Z,22.87
2022-08-19T05:57:07.601Z,22.84
2022-08-19T05:58:07.112Z,22.80
2022-08-19T05:59:07.307Z,22.77
2022-08-19T06:00:08.406Z,22.72
2022-08-19T06:01:07.216Z,22.70
2022-08-19T06:02:07.785Z,22.70
2022-08-19T06:03:11.847Z,22.70
2022-08-19T06:04:07.456Z,22.73
2022-08-19T06:05:07.988Z,22.75
2022-08-19T06:06:07.466Z,22.74
2022-08-19T06:07:11.949Z,22.73
2022-08-19T06:08:07.594Z,22.76
2022-08-19T06:09:07.820Z,22.74
2022-08-19T06:10:08.041Z,22.76
2022-08-19T06:11:07.735Z,22.74
2022-08-19T06:12:07.526Z,22.76
2022-08-19T06:13:07.919Z,22.76
2022-08-19T06:14:07.350Z,22.78
2022-08-19T06:15:08.197Z,22.77
2022-08-19T06:16:07.672Z,22.72
2022-08-19T06:17:07.686Z,22.71
2022-08-19T06:18:07.263Z,22.68
2022-08-19T06:19:07.645Z,22.70
2022-08-19T06:20:08.056Z,22.70
2022-08-19T06:21:07.373Z,22.67
2022-08-19T06:22:07.529Z,22.65
2022-08-19T06:23:07.735Z,22.65
2022-08-19T06:24:07.114Z,22.68
2022-08-19T06:25:07.446Z,22.70
2022-08-19T06:26:07.687Z,22.68
2022-08-19T06:27:07.464Z,22.65
2022-08-19T06:28:15.781Z,22.61
2022-08-19T06:29:07.240Z,22.63
2022-08-19T06:30:08.128Z,22.67
2022-08-19T06:31:07.619Z,22.73
2022-08-19T06:32:07.258Z,22.75
2022-08-19T06:33:07.980Z,22.80
2022-08-19T06:34:07.259Z,22.86
2022-08-19T06:35:07.512Z,22.89
2022-08-19T06:36:07.695Z,22.90
2022-08-19T06:37:07.196Z,22.93
2022-08-19T06:38:07.459Z,22.96
2022-08-19T06:39:07.583Z,23.03
2022-08-19T06:40:08.109Z,23.10
2022-08-19T06:41:08.149Z,23.16
2022-08-19T06:42:07.637Z,23.20
2022-08-19T06:43:08.627Z,23.20
2022-08-19T06:44:07.694Z,23.22
2022-08-19T06:45:09.510Z,23.27
2022-08-19T06:46:07.363Z,23.28
2022-08-19T06:47:14.422Z,23.31
2022-08-19T06:48:07.415Z,23.31
2022-08-19T06:49:07.863Z,23.29
2022-08-19T06:50:07.703Z,23.30
2022-08-19T06:51:08.757Z,23.29
2022-08-19T06:52:07.324Z,23.31
2022-08-19T06:53:07.472Z,23.35
2022-08-19T06:54:07.641Z,23.38
2022-08-19T06:55:07.597Z,23.43
2022-08-19T06:56:07.793Z,23.5
2022-08-19T06:57:07.171Z,23.58
2022-08-19T06:58:07.412Z,23.65
2022-08-19T06:59:07.381Z,23.72
2022-08-19T07:00:12.263Z,23.77
2022-08-19T07:01:09.146Z,23.85
2022-08-19T07:02:07.684Z,23.93
2022-08-19T07:03:08.775Z,23.95
2022-08-19T07:04:07.495Z,23.99
2022-08-19T07:05:07.930Z,24.02
2022-08-19T07:06:09.878Z,24.04
2022-08-19T07:07:20.203Z,24.08
2022-08-19T07:08:07.745Z,24.12
2022-08-19T07:09:07.969Z,24.14
2022-08-19T07:10:07.849Z,24.17
2022-08-19T07:11:09.433Z,24.22
2022-08-19T07:12:07.392Z,24.28
2022-08-19T07:13:07.275Z,24.33
2022-08-19T07:14:07.576Z,24.40
2022-08-19T07:15:07.427Z,24.44
2022-08-19T07:16:07.289Z,24.50
2022-08-19T07:17:07.219Z,24.55
2022-08-19T07:18:07.561Z,24.57
2022-08-19T07:19:11.809Z,24.56
2022-08-19T07:20:09.623Z,24.56
2022-08-19T07:21:09.498Z,24.61
2022-08-19T07:22:07.684Z,24.64
2022-08-19T07:23:07.421Z,24.72
2022-08-19T07:24:07.611Z,24.76
2022-08-19T07:25:07.229Z,24.82
2022-08-19T07:26:07.473Z,24.87
2022-08-19T07:27:15.276Z,24.90
2022-08-19T07:28:07.548Z,24.95
2022-08-19T07:29:07.817Z,24.95
2022-08-19T07:30:07.426Z,24.94
2022-08-19T07:31:07.391Z,24.92
2022-08-19T07:32:07.703Z,24.91
2022-08-19T07:33:07.160Z,24.89
2022-08-19T07:34:07.249Z,24.91
2022-08-19T07:35:07.510Z,24.88
2022-08-19T07:36:08.047Z,24.85
2022-08-19T07:37:07.379Z,24.87
2022-08-19T07:38:07.659Z,24.84
2022-08-19T07:39:08.042Z,24.85
2022-08-19T07:40:07.412Z,24.89
2022-08-19T07:41:07.100Z,24.94
2022-08-19T07:42:07.465Z,24.96
2022-08-19T07:43:07.895Z,24.98
2022-08-19T07:44:07.731Z,25.02
2022-08-19T07:45:08.183Z,25.04
2022-08-19T07:46:07.237Z,25.03
2022-08-19T07:47:07.648Z,25.04
2022-08-19T07:48:07.617Z,25.04
2022-08-19T07:49:07.116Z,25.06
2022-08-19T07:50:07.729Z,25.07
2022-08-19T07:51:07.294Z,25.08
2022-08-19T07:52:07.307Z,25.09
2022-08-19T07:53:07.850Z,25.09
2022-08-19T07:54:07.417Z,25.11
2022-08-19T07:55:07.690Z,25.14
2022-08-19T07:56:07.536Z,25.18
2022-08-19T07:57:07.191Z,25.24
2022-08-19T07:58:07.484Z,25.24
2022-08-19T07:59:07.263Z,25.27
2022-08-19T08:00:08.522Z,25.26
2022-08-19T08:01:07.364Z,25.25
2022-08-19T08:02:08.064Z,25.23
2022-08-19T08:03:07.787Z,25.29
2022-08-19T08:04:07.286Z,25.30
2022-08-19T08:05:07.585Z,25.30
2022-08-19T08:06:07.864Z,25.29
2022-08-19T08:07:07.466Z,25.31
2022-08-19T08:08:07.760Z,25.34
2022-08-19T08:09:07.885Z,25.33
2022-08-19T08:10:13.997Z,25.40
2022-08-19T08:11:08.385Z,25.39
2022-08-19T08:12:32.449Z,25.40
2022-08-19T08:13:09.161Z,25.41
2022-08-19T08:14:07.872Z,25.40
2022-08-19T08:15:08.306Z,25.40
2022-08-19T08:16:10.429Z,25.40
2022-08-19T08:17:10.965Z,25.44
2022-08-19T08:18:07.336Z,25.44
2022-08-19T08:19:18.208Z,25.43
2022-08-19T08:20:07.401Z,25.45
2022-08-19T08:21:07.420Z,25.5
2022-08-19T08:22:07.833Z,25.53
2022-08-19T08:23:07.466Z,25.55
2022-08-19T08:24:08.150Z,25.60
2022-08-19T08:25:07.487Z,25.64
2022-08-19T08:26:07.289Z,25.63
2022-08-19T08:27:11.300Z,25.61
2022-08-19T08:28:07.128Z,25.60
2022-08-19T08:29:11.481Z,25.62
2022-08-19T08:30:07.305Z,25.61
2022-08-19T08:31:09.567Z,25.60
2022-08-19T08:32:14.264Z,25.56
2022-08-19T08:33:07.770Z,25.59
2022-08-19T08:34:07.917Z,25.60
2022-08-19T08:35:07.226Z,25.68
2022-08-19T08:36:07.872Z,25.73
2022-08-19T08:37:07.470Z,25.77
2022-08-19T08:38:07.694Z,25.79
2022-08-19T08:39:07.323Z,25.86
2022-08-19T08:40:11.272Z,25.89
2022-08-19T08:41:07.615Z,25.93
2022-08-19T08:42:10.416Z,25.95
2022-08-19T08:43:11.209Z,25.94
2022-08-19T08:44:07.746Z,25.95
2022-08-19T08:45:07.802Z,25.95
2022-08-19T08:46:07.905Z,25.95
2022-08-19T08:47:07.907Z,25.93
2022-08-19T08:48:07.628Z,25.95
2022-08-19T08:49:07.413Z,25.96
2022-08-19T08:50:07.412Z,25.98
2022-08-19T08:51:07.645Z,26
2022-08-19T08:52:07.259Z,26.02
2022-08-19T08:53:07.838Z,26.07
2022-08-19T08:54:07.452Z,26.11
2022-08-19T08:55:10.270Z,26.17
2022-08-19T08:56:07.422Z,26.20
2022-08-19T08:57:07.419Z,26.24
2022-08-19T08:58:07.462Z,26.30
2022-08-19T08:59:07.619Z,26.36
2022-08-19T09:01:07.685Z,26.5
2022-08-19T09:03:07.489Z,26.59
2022-08-19T09:04:07.190Z,26.63
2022-08-19T09:05:07.604Z,26.69
2022-08-19T09:06:12.012Z,26.71
2022-08-19T09:07:18.258Z,26.73
2022-08-19T09:08:07.273Z,26.73
2022-08-19T09:09:11.764Z,26.75
2022-08-19T09:10:07.306Z,26.77
2022-08-19T09:11:07.769Z,26.86
2022-08-19T09:12:07.743Z,26.92
2022-08-19T09:13:09.147Z,26.91
2022-08-19T09:14:07.379Z,26.93
2022-08-19T09:15:07.578Z,26.98
2022-08-19T09:16:07.326Z,27.01
2022-08-19T09:17:07.651Z,27.04
2022-08-19T09:18:08.177Z,27.05
2022-08-19T09:19:07.630Z,27.07
2022-08-19T09:20:09.149Z,27.05
2022-08-19T09:21:12.316Z,27.09
2022-08-19T09:22:07.280Z,27.18
2022-08-19T09:23:07.734Z,27.25
2022-08-19T09:24:07.537Z,27.34
2022-08-19T09:25:07.994Z,27.42
2022-08-19T09:26:07.362Z,27.45
2022-08-19T09:27:18.303Z,27.51
2022-08-19T09:28:22.686Z,27.51
2022-08-19T09:29:07.415Z,27.53
2022-08-19T09:30:07.960Z,27.54
2022-08-19T09:31:07.682Z,27.54
2022-08-19T09:32:07.191Z,27.57
2022-08-19T09:33:07.135Z,27.57
2022-08-19T09:34:07.450Z,27.61
2022-08-19T09:35:08.634Z,27.61
2022-08-19T09:36:08.570Z,27.62
2022-08-19T09:37:07.691Z,27.62
2022-08-19T09:38:07.393Z,27.66
2022-08-19T09:39:16.089Z,27.71
2022-08-19T09:40:07.948Z,27.73
2022-08-19T09:41:07.369Z,27.75
2022-08-19T09:42:16.223Z,27.80
2022-08-19T09:43:11.487Z,27.82
2022-08-19T09:44:07.439Z,27.85
2022-08-19T09:45:10.400Z,27.83
2022-08-19T09:46:07.345Z,27.78
2022-08-19T09:47:07.632Z,27.74
2022-08-19T09:48:07.287Z,27.76
2022-08-19T09:49:07.621Z,27.81
2022-08-19T09:50:07.728Z,27.86
2022-08-19T09:51:07.346Z,27.91
2022-08-19T09:52:07.617Z,27.89
2022-08-19T09:53:07.787Z,27.89
2022-08-19T09:54:07.164Z,27.87
2022-08-19T09:55:07.602Z,27.92
2022-08-19T09:56:07.375Z,27.98
2022-08-19T09:57:07.869Z,28.05
2022-08-19T09:58:07.365Z,28.07
2022-08-19T09:59:07.771Z,28.04
2022-08-19T10:00:07.947Z,28.03
2022-08-19T10:01:07.921Z,28.03
2022-08-19T10:02:10.584Z,28.04
2022-08-19T10:03:07.391Z,28.05
2022-08-19T10:04:14.720Z,28.10
2022-08-19T10:05:07.517Z,28.16
2022-08-19T10:06:15.131Z,28.20
2022-08-19T10:07:07.462Z,28.27
2022-08-19T10:08:07.663Z,28.32
2022-08-19T10:09:08.980Z,28.40
2022-08-19T10:10:07.876Z,28.45
2022-08-19T10:11:28.481Z,28.54
2022-08-19T10:12:11.251Z,28.56
2022-08-19T10:13:07.534Z,28.61
2022-08-19T10:14:07.537Z,28.69
2022-08-19T10:15:08.080Z,28.75
2022-08-19T10:16:07.602Z,28.72
2022-08-19T10:17:19.931Z,28.71
2022-08-19T10:18:07.553Z,28.74
2022-08-19T10:19:08.040Z,28.74
2022-08-19T10:20:07.808Z,28.73
2022-08-19T10:21:07.644Z,28.71
2022-08-19T10:22:10.176Z,28.70
2022-08-19T10:23:07.858Z,28.72
2022-08-19T10:24:09.454Z,28.76
2022-08-19T10:25:07.341Z,28.79
2022-08-19T10:26:07.407Z,28.82
2022-08-19T10:27:07.749Z,28.86
2022-08-19T10:28:10.756Z,28.87
2022-08-19T10:29:09.463Z,28.89
2022-08-19T10:30:09.896Z,28.89
2022-08-19T10:31:07.681Z,28.93
2022-08-19T10:32:09.405Z,28.95
2022-08-19T10:33:11.044Z,28.98
2022-08-19T10:34:10.000Z,29.02
2022-08-19T10:35:07.791Z,29.03
2022-08-19T10:36:07.407Z,29.01
2022-08-19T10:37:10.158Z,28.99
2022-08-19T10:38:07.440Z,28.96
2022-08-19T10:39:08.120Z,28.97
2022-08-19T10:40:08.025Z,28.97
2022-08-19T10:41:07.896Z,28.98
2022-08-19T10:42:07.265Z,28.97
2022-08-19T10:43:07.745Z,28.98
2022-08-19T10:44:07.425Z,29.00
2022-08-19T10:45:08.025Z,29.05
2022-08-19T10:46:14.238Z,29.11
2022-08-19T10:47:17.289Z,29.15
2022-08-19T10:48:07.784Z,29.21
2022-08-19T10:49:07.752Z,29.23
2022-08-19T10:50:07.880Z,29.22
2022-08-19T10:51:07.855Z,29.23
2022-08-19T10:52:07.660Z,29.26
2022-08-19T10:53:08.042Z,29.28
2022-08-19T10:54:12.383Z,29.29
2022-08-19T10:55:08.515Z,29.30
2022-08-19T10:56:07.677Z,29.33
2022-08-19T10:57:07.244Z,29.36
2022-08-19T10:58:07.988Z,29.42
2022-08-19T10:59:07.339Z,29.44
2022-08-19T11:00:08.580Z,29.48
2022-08-19T11:01:08.018Z,29.54
2022-08-19T11:02:07.699Z,29.55
2022-08-19T11:03:07.360Z,29.56
2022-08-19T11:04:07.650Z,29.56
2022-08-19T11:05:12.796Z,29.56
2022-08-19T11:06:07.930Z,29.59
2022-08-19T11:07:07.561Z,29.61
2022-08-19T11:08:22.902Z,29.68
2022-08-19T11:09:07.512Z,29.76
2022-08-19T11:10:11.493Z,29.76
2022-08-19T11:11:07.903Z,29.79
2022-08-19T11:12:07.587Z,29.81
2022-08-19T11:13:08.042Z,29.76
2022-08-19T11:14:07.650Z,29.75
2022-08-19T11:15:08.403Z,29.75
2022-08-19T11:16:07.923Z,29.81
2022-08-19T11:17:07.995Z,29.83
2022-08-19T11:18:07.677Z,29.80
2022-08-19T11:19:07.077Z,29.83
2022-08-19T11:20:07.798Z,29.82
2022-08-19T11:21:07.283Z,29.86
2022-08-19T11:22:07.689Z,29.87
2022-08-19T11:23:07.633Z,29.84
2022-08-19T11:24:07.521Z,29.81
2022-08-19T11:25:07.266Z,29.84
2022-08-19T11:26:07.915Z,29.91
2022-08-19T11:27:07.833Z,29.88
2022-08-19T11:28:07.364Z,29.86
2022-08-19T11:29:07.646Z,29.85
2022-08-19T11:30:07.094Z,29.85
2022-08-19T11:31:07.084Z,29.83
2022-08-19T11:32:07.737Z,29.78
2022-08-19T11:33:07.505Z,29.73
2022-08-19T11:34:07.469Z,29.69
2022-08-19T11:35:08.033Z,29.67
2022-08-19T11:36:07.546Z,29.63
2022-08-19T11:37:07.251Z,29.67
2022-08-19T11:38:09.884Z,29.64
2022-08-19T11:39:07.772Z,29.62
2022-08-19T11:40:07.676Z,29.60
2022-08-19T11:41:07.892Z,29.54
2022-08-19T11:42:07.372Z,29.56
2022-08-19T11:43:07.973Z,29.56
2022-08-19T11:44:07.427Z,29.50
2022-08-19T11:45:08.107Z,29.48
2022-08-19T11:46:07.604Z,29.47
2022-08-19T11:47:08.833Z,29.48
2022-08-19T11:48:07.481Z,29.45
2022-08-19T11:49:10.733Z,29.47
2022-08-19T11:50:08.060Z,29.5
2022-08-19T11:51:07.796Z,29.48
2022-08-19T11:52:07.432Z,29.45
2022-08-19T11:53:07.985Z,29.40
2022-08-19T11:54:08.481Z,29.35
2022-08-19T11:55:08.277Z,29.33
2022-08-19T11:56:07.977Z,29.29
2022-08-19T11:57:07.646Z,29.28
2022-08-19T11:58:07.050Z,29.30
2022-08-19T11:59:08.826Z,29.31
2022-08-19T12:00:21.886Z,29.30
2022-08-19T12:01:07.499Z,29.30
2022-08-19T12:02:07.769Z,29.26
2022-08-19T12:03:07.319Z,29.21
2022-08-19T12:04:07.568Z,29.22
2022-08-19T12:05:11.971Z,29.25
2022-08-19T12:06:07.623Z,29.26
2022-08-19T12:07:07.370Z,29.28
2022-08-19T12:08:07.775Z,29.25
2022-08-19T12:09:07.684Z,29.24
2022-08-19T12:10:07.366Z,29.22
2022-08-19T12:11:07.695Z,29.20
2022-08-19T12:12:07.287Z,29.18
2022-08-19T12:13:08.340Z,29.20
2022-08-19T12:14:07.913Z,29.21
2022-08-19T12:15:08.439Z,29.23
2022-08-19T12:16:07.534Z,29.27
2022-08-19T12:17:07.619Z,29.27
2022-08-19T12:18:07.502Z,29.26
2022-08-19T12:19:07.392Z,29.23
2022-08-19T12:20:07.598Z,29.28
2022-08-19T12:21:07.849Z,29.40
2022-08-19T12:22:07.387Z,29.38
2022-08-19T12:23:07.983Z,29.40
2022-08-19T12:24:07.541Z,29.38
2022-08-19T12:25:08.110Z,29.34
2022-08-19T12:26:07.660Z,29.37
2022-08-19T12:27:12.485Z,29.38
2022-08-19T12:28:07.421Z,29.38
2022-08-19T12:29:07.841Z,29.41
2022-08-19T12:30:07.869Z,29.45
2022-08-19T12:31:07.614Z,29.52
2022-08-19T12:32:07.453Z,29.56
2022-08-19T12:33:07.420Z,29.55
2022-08-19T12:34:08.231Z,29.54
2022-08-19T12:35:07.348Z,29.61
2022-08-19T12:36:08.281Z,29.64
2022-08-19T12:37:08.094Z,29.61
2022-08-19T12:38:07.695Z,29.61
2022-08-19T12:39:07.304Z,29.65
2022-08-19T12:40:07.395Z,29.70
2022-08-19T12:41:07.434Z,29.72
2022-08-19T12:42:07.185Z,29.71
2022-08-19T12:43:07.830Z,29.69
2022-08-19T12:44:07.447Z,29.71
2022-08-19T12:45:07.838Z,29.71
2022-08-19T12:46:07.116Z,29.71
2022-08-19T12:47:08.011Z,29.68
2022-08-19T12:48:32.966Z,29.65
2022-08-19T12:49:15.329Z,29.67
2022-08-19T12:50:07.635Z,29.71
2022-08-19T12:51:07.286Z,29.67
2022-08-19T12:52:07.722Z,29.67
2022-08-19T12:53:07.332Z,29.69
2022-08-19T12:54:07.627Z,29.72
2022-08-19T12:55:07.325Z,29.75